Time;durP1;ratioP1;P1;durP2;ratioP2;P2;SDS_P1;SDS_P2;PMS_P1;PMS_P2;Temp;Humidity;BMP_temperature;BMP_pressure;BME280_temperature;BME280_humidity;BME280_pressure;Samples;Min_cycle;Max_cycle;Signal;HPM_P1;HPM_P2
2022/09/29 00:08:55;;;;;;;9.70;6.20;;;;;;;9.09;82.29;97138.84;434222;1267;112534;-40
2022/09/29 00:19:02;;;;;;;10.90;6.90;;;;;;;9.13;82.47;97140.75;434061;1266;108805;-40
2022/09/29 00:29:11;;;;;;;10.10;6.80;;;;;;;9.10;82.46;97125.23;434077;1267;98605;-40
2022/09/29 00:39:18;;;;;;;10.00;7.40;;;;;;;8.94;82.52;97113.40;433782;1266;108839;-40
2022/09/29 00:49:27;;;;;;;10.60;5.90;;;;;;;8.84;82.48;97128.73;433475;1267;99228;-42
2022/09/29 00:59:38;;;;;;;7.20;5.90;;;;;;;8.78;82.47;97142.99;433727;1267;112402;-39
2022/09/29 01:09:46;;;;;;;6.60;5.30;;;;;;;8.76;82.62;97148.40;434287;1266;108718;-39
2022/09/29 01:20:00;;;;;;;6.60;5.70;;;;;;;8.82;82.65;97152.91;434120;1268;99710;-39
2022/09/29 01:30:11;;;;;;;8.00;6.60;;;;;;;8.76;82.75;97164.91;434327;1266;108053;-39
2022/09/29 01:40:26;;;;;;;9.40;8.20;;;;;;;8.64;82.76;97175.35;434634;1256;99229;-39
2022/09/29 01:50:35;;;;;;;8.50;5.70;;;;;;;8.47;82.47;97183.27;433530;1267;112244;-39
2022/09/29 02:00:44;;;;;;;;;;;;;;;8.40;82.70;97178.27;433561;1267;108831;-39
2022/09/29 02:10:55;;;;;;;9.00;6.30;;;;;;;8.52;82.88;97194.02;433753;1266;99238;-39
2022/09/29 02:21:03;;;;;;;8.60;6.10;;;;;;;8.64;83.08;97201.59;433093;1267;108809;-41
2022/09/29 02:31:11;;;;;;;13.90;7.80;;;;;;;8.62;83.01;97203.95;433822;1267;99271;-40
2022/09/29 02:41:19;;;;;;;15.20;9.40;;;;;;;8.51;83.14;97208.44;433753;1267;112407;-40
2022/09/29 02:51:27;;;;;;;16.80;10.00;;;;;;;8.39;82.99;97195.38;433244;1267;108889;-41
2022/09/29 03:01:31;;;;;;;9.00;7.10;;;;;;;8.34;82.99;97188.02;433678;1267;99247;-39
2022/09/29 03:11:39;;;;;;;8.80;6.80;;;;;;;8.46;83.15;97188.16;433754;1267;109279;-39
2022/09/29 03:21:46;;;;;;;14.20;9.40;;;;;;;8.52;83.33;97196.81;433157;1267;99330;-40
2022/09/29 03:31:53;;;;;;;12.10;10.20;;;;;;;8.47;83.17;97205.46;433706;1267;111347;-40
2022/09/29 03:42:00;;;;;;;9.60;6.80;;;;;;;8.27;82.77;97205.14;433807;1267;107781;-41
2022/09/29 03:52:08;;;;;;;7.20;6.00;;;;;;;8.15;82.87;97205.02;433407;1267;99986;-41
2022/09/29 04:12:23;;;;;;;11.50;9.10;;;;;;;8.14;83.16;97236.77;433287;1270;98056;-39
2022/09/29 04:22:30;;;;;;;15.20;10.20;;;;;;;8.04;83.10;97256.98;433804;1267;112498;-39
2022/09/29 04:32:37;;;;;;;16.90;12.00;;;;;;;7.91;83.09;97264.90;433265;1267;108316;-41
2022/09/29 04:42:44;;;;;;;12.90;8.90;;;;;;;7.87;83.15;97261.59;433475;1267;98808;-41
2022/09/29 04:52:51;;;;;;;15.00;10.40;;;;;;;7.87;83.24;97259.59;433950;1267;108300;-39
2022/09/29 05:02:59;;;;;;;10.60;9.30;;;;;;;7.90;83.34;97269.46;433427;1267;98076;-40
2022/09/29 05:13:06;;;;;;;18.60;12.50;;;;;;;7.86;83.59;97278.05;433822;1267;112519;-40
2022/09/29 05:23:13;;;;;;;14.20;11.00;;;;;;;7.87;83.50;97280.75;433550;1267;108829;-40
2022/09/29 05:33:21;;;;;;;15.00;10.50;;;;;;;7.88;83.44;97278.17;433553;1267;99902;-39
2022/09/29 05:43:29;;;;;;;11.60;9.80;;;;;;;8.01;83.59;97278.23;434276;1267;108095;-39
2022/09/29 05:53:36;;;;;;;13.80;9.70;;;;;;;8.36;83.97;97293.42;434539;1268;98891;-39
2022/09/29 06:03:43;;;;;;;31.00;20.90;;;;;;;8.64;83.96;97307.20;434187;1268;112466;-39
2022/09/29 06:13:52;;;;;;;23.00;15.30;;;;;;;8.82;84.03;97298.20;433628;1268;108821;-40
2022/09/29 06:24:00;;;;;;;19.40;12.10;;;;;;;8.94;83.42;97297.55;433541;1268;161822;-40
2022/09/29 06:34:10;;;;;;;19.60;12.30;;;;;;;9.28;83.61;97303.57;433705;1268;108648;-40
2022/09/29 06:44:17;;;;;;;17.60;13.50;;;;;;;9.45;83.21;97320.34;433287;1269;99289;-40
2022/09/29 06:54:24;;;;;;;20.10;14.30;;;;;;;9.41;83.15;97324.70;433748;1268;112504;-40
2022/09/29 07:04:32;;;;;;;17.70;12.10;;;;;;;9.81;83.42;97322.95;433952;1268;108861;-39
2022/09/29 07:14:39;;;;;;;20.90;12.70;;;;;;;10.13;83.02;97323.94;433832;1268;98696;-40
2022/09/29 07:34:54;;;;;;;14.30;11.00;;;;;;;10.33;82.40;97336.72;433643;1268;98540;-40
2022/09/29 07:45:01;;;;;;;11.60;8.90;;;;;;;10.70;82.57;97335.76;433848;1268;113203;-39
2022/09/29 07:55:09;;;;;;;13.60;8.40;;;;;;;11.18;82.40;97345.32;433696;1268;107299;-39
2022/09/29 08:05:15;;;;;;;7.50;5.00;;;;;;;11.83;82.01;97351.58;433549;1268;99297;-40
2022/09/29 08:15:23;;;;;;;4.90;4.10;;;;;;;12.33;81.53;97359.23;433870;1268;109156;-41
2022/09/29 08:25:30;;;;;;;8.70;5.70;;;;;;;12.82;80.88;97366.04;433065;1268;97997;-41
2022/09/29 08:35:37;;;;;;;5.30;4.00;;;;;;;13.22;80.22;97371.63;433430;1268;112952;-40
2022/09/29 08:45:45;;;;;;;5.20;4.10;;;;;;;13.58;79.47;97373.48;433703;1268;108907;-40
2022/09/29 08:56:13;;;;;;;4.00;3.10;;;;;;;13.69;79.16;97375.45;433630;1268;98040;-39
2022/09/29 09:06:22;;;;;;;5.30;2.80;;;;;;;13.65;77.79;97386.73;433798;1268;109011;-39
2022/09/29 09:16:32;;;;;;;3.30;2.70;;;;;;;13.85;77.62;97390.32;433792;1268;98821;-39
2022/09/29 09:26:42;;;;;;;4.70;2.80;;;;;;;14.10;76.59;97397.10;433961;1268;110818;-39
2022/09/29 09:36:50;;;;;;;5.10;2.50;;;;;;;13.96;75.83;97395.21;433506;1268;108963;-40
2022/09/29 09:47:11;;;;;;;4.90;3.50;;;;;;;13.95;75.34;97399.11;433622;1268;98835;-38
2022/09/29 09:57:33;;;;;;;6.90;3.40;;;;;;;13.83;74.86;97404.64;433378;1269;108752;-39
2022/09/29 10:07:41;;;;;;;5.10;3.00;;;;;;;13.82;75.01;97412.89;433719;1268;99264;-39
2022/09/29 10:17:50;;;;;;;4.20;3.60;;;;;;;13.61;74.36;97421.30;432969;1270;112401;-39
2022/09/29 10:27:58;;;;;;;4.00;3.60;;;;;;;13.84;74.73;97422.75;433343;1267;108912;-39
2022/09/29 10:38:15;;;;;;;6.40;3.40;;;;;;;14.26;73.93;97425.53;433731;1268;99228;-39
2022/09/29 10:48:23;;;;;;;4.30;3.20;;;;;;;13.96;73.35;97423.77;434041;1268;109052;-39
2022/09/29 10:58:32;;;;;;;4.10;2.70;;;;;;;13.79;73.06;97432.73;433762;1268;99243;-39
2022/09/29 11:19:05;;;;;;;3.00;2.70;;;;;;;13.67;72.68;97449.04;433678;1268;108831;-40
2022/09/29 11:29:27;;;;;;;5.00;2.40;;;;;;;13.64;72.73;97446.40;433616;1268;99362;-41
2022/09/29 11:39:35;;;;;;;4.40;2.60;;;;;;;13.70;72.50;97456.13;432701;1267;108822;-40
2022/09/29 11:49:49;;;;;;;2.70;2.50;;;;;;;14.02;72.38;97443.69;433380;1268;98837;-41
2022/09/29 12:00:03;;;;;;;2.10;2.00;;;;;;;14.25;71.04;97431.33;433661;1268;112396;-39
2022/09/29 12:10:24;;;;;;;2.70;1.90;;;;;;;14.03;70.73;97428.38;433702;1268;108834;-39
2022/09/29 12:20:33;;;;;;;2.10;1.90;;;;;;;13.78;70.43;97442.95;433433;1268;99269;-38
2022/09/29 12:30:41;;;;;;;2.30;1.80;;;;;;;13.76;70.26;97448.82;433709;1268;109178;-38
2022/09/29 12:50:59;;;;;;;2.40;2.20;;;;;;;13.99;69.69;97453.59;433210;1268;111347;-41
2022/09/29 13:01:15;;;;;;;1.90;1.60;;;;;;;14.32;69.47;97446.52;433531;1268;108941;-39
2022/09/29 13:12:00;;;;;;;2.70;1.90;;;;;;;14.13;69.13;97445.72;433813;1268;98046;-39
2022/09/29 13:22:14;;;;;;;3.60;1.70;;;;;;;13.98;69.14;97473.23;432616;1270;109096;-39
2022/09/29 13:42:43;;;;;;;5.20;3.60;;;;;;;13.98;69.07;97488.97;433712;1268;110440;-40
2022/09/29 13:52:51;;;;;;;4.60;3.40;;;;;;;13.88;68.94;97486.43;433260;1268;108894;-40
2022/09/29 14:13:15;;;;;;;5.60;2.90;;;;;;;13.45;68.72;97492.27;433883;1268;112541;-38
2022/09/29 14:23:50;;;;;;;2.90;2.60;;;;;;;13.27;68.67;97490.05;433805;1268;108922;-39
2022/09/29 14:34:01;;;;;;;2.80;2.20;;;;;;;13.27;68.61;97502.38;433387;1268;99232;-39
2022/09/29 14:44:12;;;;;;;2.00;1.70;;;;;;;13.36;68.38;97513.10;433351;1268;108971;-41
2022/09/29 14:54:28;;;;;;;2.30;1.90;;;;;;;13.17;68.05;97523.48;433349;1268;97938;-40
2022/09/29 15:04:39;;;;;;;5.60;2.50;;;;;;;13.00;68.17;97525.77;433594;1268;112508;-40
2022/09/29 15:14:48;;;;;;;4.50;2.70;;;;;;;12.88;68.21;97529.21;433540;1267;109834;-40
2022/09/29 15:25:02;;;;;;;4.20;3.80;;;;;;;12.81;68.78;97543.57;433392;1267;98036;-40
2022/09/29 15:35:20;;;;;;;9.60;4.30;;;;;;;12.75;68.95;97555.30;433447;1268;107983;-40
2022/09/29 15:45:28;;;;;;;6.90;4.20;;;;;;;12.58;69.14;97564.89;433418;1267;100050;-40
2022/09/29 15:55:36;;;;;;;6.30;4.80;;;;;;;12.45;69.33;97569.04;433391;1268;112904;-40
2022/09/29 16:05:52;;;;;;;7.40;5.50;;;;;;;12.29;69.37;97574.20;433793;1268;108498;-39
2022/09/29 16:16:02;;;;;;;8.10;5.00;;;;;;;12.02;69.46;97569.65;433449;1268;97992;-40
2022/09/29 16:26:17;;;;;;;8.60;5.00;;;;;;;11.75;69.83;97575.69;433483;1268;107905;-40
2022/09/29 16:46:34;;;;;;;13.40;9.40;;;;;;;11.16;70.94;97601.75;433571;1267;112578;-40
2022/09/29 16:56:43;;;;;;;18.60;11.00;;;;;;;10.77;71.39;97617.57;433605;1268;108864;-40
2022/09/29 17:06:49;;;;;;;20.80;11.50;;;;;;;10.31;71.71;97639.76;433059;1270;98020;-38
2022/09/29 17:16:57;;;;;;;21.80;14.10;;;;;;;10.01;72.30;97650.77;433873;1268;109179;-40
2022/09/29 17:37:29;;;;;;;27.10;15.00;;;;;;;9.81;73.38;97668.09;433513;1268;112459;-39
2022/09/29 17:47:36;;;;;;;41.90;25.10;;;;;;;9.62;73.97;97675.05;433041;1269;108988;-39
2022/09/29 17:57:46;;;;;;;41.20;24.60;;;;;;;9.35;74.07;97689.35;433647;1269;99229;-38
2022/09/29 18:07:55;;;;;;;48.40;27.80;;;;;;;9.11;74.32;97694.98;433153;1270;108794;-39
2022/09/29 18:18:05;;;;;;;45.20;31.50;;;;;;;8.95;74.60;97700.14;433296;1269;233533;-39
2022/09/29 18:28:14;;;;;;;48.50;31.10;;;;;;;8.85;75.21;97702.06;433375;1270;112697;-41
2022/09/29 18:38:21;;;;;;;51.30;31.70;;;;;;;8.73;75.48;97702.30;433764;1268;108753;-40
2022/09/29 18:48:28;;;;;;;46.70;28.00;;;;;;;8.61;75.96;97699.84;433252;1269;99300;-40
2022/09/29 18:58:35;;;;;;;41.40;26.50;;;;;;;8.81;76.32;97706.33;433567;1268;108010;-40
2022/09/29 19:18:49;;;;;;;36.80;27.20;;;;;;;8.77;76.56;97726.07;433686;1268;111957;-39
2022/09/29 19:28:56;;;;;;;53.90;29.70;;;;;;;8.53;76.70;97731.53;433177;1269;108798;-39
2022/09/29 19:39:04;;;;;;;37.90;25.90;;;;;;;8.29;76.63;97742.33;433484;1268;98746;-39
2022/09/29 19:49:11;;;;;;;42.00;28.80;;;;;;;8.15;76.75;97752.48;432303;1270;108983;-40
2022/09/29 19:59:19;;;;;;;27.40;19.30;;;;;;;8.02;77.11;97746.17;432868;1268;99230;-40
2022/09/29 20:09:27;;;;;;;29.20;20.10;;;;;;;7.92;77.16;97744.90;433314;1268;112569;-40
2022/09/29 20:19:33;;;;;;;37.70;24.00;;;;;;;7.79;77.54;97745.89;433287;1268;108830;-40
2022/09/29 20:29:41;;;;;;;48.30;31.30;;;;;;;7.58;77.60;97754.89;433574;1268;99247;-40
2022/09/29 20:49:55;;;;;;;34.60;22.30;;;;;;;7.23;77.78;97800.34;434037;1268;98634;-40
2022/09/29 21:00:00;;;;;;;36.50;25.20;;;;;;;7.20;78.07;97816.90;433449;1268;112841;-40
2022/09/29 21:10:10;;;;;;;46.80;27.90;;;;;;;7.12;78.01;97815.30;433156;1270;108701;-40
2022/09/29 21:20:17;;;;;;;47.50;30.60;;;;;;;7.01;78.48;97823.09;433407;1270;98063;-40
2022/09/29 21:30:24;;;;;;;52.30;34.90;;;;;;;7.03;78.92;97831.42;433794;1268;107354;-40
2022/09/29 21:40:31;;;;;;;46.00;28.40;;;;;;;6.96;78.85;97840.61;433343;1268;99910;-40
2022/09/29 21:50:39;;;;;;;44.80;27.90;;;;;;;6.95;78.89;97855.27;433563;1268;112541;-39
2022/09/29 22:00:47;;;;;;;43.40;28.40;;;;;;;6.96;79.11;97854.29;433215;1268;108816;-41
2022/09/29 22:10:55;;;;;;;39.20;24.20;;;;;;;7.09;79.54;97864.13;433497;1268;99119;-40
2022/09/29 22:21:05;;;;;;;48.40;31.20;;;;;;;7.05;79.36;97874.48;433553;1268;109354;-40
2022/09/29 22:31:14;;;;;;;50.30;33.80;;;;;;;6.90;79.40;97872.36;432882;1269;98060;-40
2022/09/29 22:51:29;;;;;;;34.80;24.90;;;;;;;6.56;79.53;97858.52;433246;1270;108929;-40
2022/09/29 23:01:36;;;;;;;32.60;21.40;;;;;;;6.50;79.40;97855.15;433240;1270;98961;-40
2022/09/29 23:11:44;;;;;;;41.60;28.00;;;;;;;6.35;79.32;97861.30;433037;1270;108862;-40
2022/09/29 23:21:51;;;;;;;56.60;28.90;;;;;;;6.08;79.35;97873.95;433384;1269;98854;-40
2022/09/29 23:31:57;;;;;;;35.80;23.80;;;;;;;6.00;79.72;97871.92;433593;1268;112180;-40
2022/09/29 23:52:10;;;;;;;32.30;22.70;;;;;;;5.86;79.48;97881.33;433928;1268;98811;-39
